Terminal Aerodrome Forecast
Issued by NWS

Current Version | Previous Version | Text Only | Print | Product List | Glossary On
Versions: 1 2 3 4 5 6 7 8 9 10 11 12 13 14
000
FTUS45 KGJT 240524
TAFVEL
TAF
KVEL 240524Z 2406/2506 32006KT P6SM VCTS FEW080CB SCT100
     FM240800 03007KT P6SM VCSH SCT050 BKN110
     FM241500 19005KT P6SM VCSH SCT025 OVC035
     FM242000 23009KT P6SM VCSH SCT035 BKN070
     FM250300 32004KT P6SM SCT050 BKN080=

USA.gov is the U.S. government's official web portal to all federal, state and local government web resources and services.